createdAt,value
2023-05-14T00:00:35.189Z,10.33
2023-05-14T00:01:35.173Z,10.30
2023-05-14T00:02:35.235Z,10.32
2023-05-14T00:03:35.192Z,10.32
2023-05-14T00:04:35.207Z,10.32
2023-05-14T00:05:35.152Z,10.32
2023-05-14T00:06:35.142Z,10.34
2023-05-14T00:07:35.116Z,10.33
2023-05-14T00:08:35.106Z,10.29
2023-05-14T00:09:35.074Z,10.29
2023-05-14T00:10:35.104Z,10.29
2023-05-14T00:11:35.069Z,10.26
2023-05-14T00:12:35.032Z,10.29
2023-05-14T00:13:35.063Z,10.30
2023-05-14T00:14:35.027Z,10.32
2023-05-14T00:15:35.108Z,10.30
2023-05-14T00:16:35.150Z,10.29
2023-05-14T00:17:35.327Z,10.27
2023-05-14T00:18:34.994Z,10.26
2023-05-14T00:19:34.958Z,10.26
2023-05-14T00:20:34.982Z,10.26
2023-05-14T00:21:34.935Z,10.27
2023-05-14T00:22:35.230Z,10.26
2023-05-14T00:23:34.957Z,10.22
2023-05-14T00:24:35.172Z,10.18
2023-05-14T00:25:35.259Z,10.15
2023-05-14T00:26:35.145Z,10.15
2023-05-14T00:27:34.897Z,10.12
2023-05-14T00:28:34.882Z,10.12
2023-05-14T00:29:34.897Z,10.15
2023-05-14T00:30:35.128Z,10.15
2023-05-14T00:31:34.851Z,10.14
2023-05-14T00:32:34.845Z,10.15
2023-05-14T00:33:34.801Z,10.14
2023-05-14T00:34:34.804Z,10.11
2023-05-14T00:35:34.774Z,10.11
2023-05-14T00:36:34.767Z,10.09
2023-05-14T00:37:34.776Z,10.08
2023-05-14T00:38:34.739Z,10.07
2023-05-14T00:39:34.770Z,10.04
2023-05-14T00:40:34.759Z,10.02
2023-05-14T00:41:34.727Z,10.01
2023-05-14T00:42:34.707Z,9.99
2023-05-14T00:43:34.745Z,9.94
2023-05-14T00:44:34.690Z,9.93
2023-05-14T00:45:34.664Z,9.93
2023-05-14T00:46:34.962Z,9.93
2023-05-14T00:47:34.667Z,9.93
2023-05-14T00:48:34.648Z,9.91
2023-05-14T00:49:34.620Z,9.90
2023-05-14T00:50:34.608Z,9.89
2023-05-14T00:51:34.592Z,9.87
2023-05-14T00:52:34.620Z,9.87
2023-05-14T00:53:34.623Z,9.83
2023-05-14T00:54:34.601Z,9.83
2023-05-14T00:55:34.557Z,9.84
2023-05-14T00:56:37.468Z,9.81
2023-05-14T00:57:34.847Z,9.78
2023-05-14T00:58:34.552Z,9.78
2023-05-14T00:59:34.522Z,9.76
2023-05-14T01:00:34.526Z,9.72
2023-05-14T01:01:34.744Z,9.68
2023-05-14T01:02:34.577Z,9.71
2023-05-14T01:03:34.589Z,9.74
2023-05-14T01:04:34.435Z,9.76
2023-05-14T01:05:34.729Z,9.74
2023-05-14T01:06:37.189Z,9.69
2023-05-14T01:07:34.423Z,9.71
2023-05-14T01:08:34.396Z,9.68
2023-05-14T01:09:34.425Z,9.65
2023-05-14T01:10:34.375Z,9.65
2023-05-14T01:11:34.388Z,9.65
2023-05-14T01:12:34.486Z,9.65
2023-05-14T01:13:34.333Z,9.60
2023-05-14T01:14:34.631Z,9.58
2023-05-14T01:15:34.352Z,9.54
2023-05-14T01:16:34.426Z,9.53
2023-05-14T01:17:34.324Z,9.51
2023-05-14T01:18:34.322Z,9.50
2023-05-14T01:19:34.288Z,9.53
2023-05-14T01:20:34.301Z,9.54
2023-05-14T01:21:34.328Z,9.51
2023-05-14T01:22:34.260Z,9.56
2023-05-14T01:23:41.510Z,9.56
2023-05-14T01:24:43.116Z,9.56
2023-05-14T01:25:42.270Z,9.53
2023-05-14T01:26:41.488Z,9.53
2023-05-14T01:27:42.058Z,9.53
2023-05-14T01:28:41.539Z,9.54
2023-05-14T01:29:44.467Z,9.51
2023-05-14T01:30:34.172Z,9.48
2023-05-14T01:31:34.170Z,9.48
2023-05-14T01:32:34.174Z,9.48
2023-05-14T01:33:34.111Z,9.48
2023-05-14T01:34:34.115Z,9.48
2023-05-14T01:35:34.136Z,9.48
2023-05-14T01:36:34.141Z,9.50
2023-05-14T01:37:34.071Z,9.50
2023-05-14T01:38:34.247Z,9.50
2023-05-14T01:39:34.074Z,9.51
2023-05-14T01:40:34.088Z,9.48
2023-05-14T01:41:34.020Z,9.46
2023-05-14T01:42:34.008Z,9.42
2023-05-14T01:43:34.367Z,9.40
2023-05-14T01:44:34.003Z,9.39
2023-05-14T01:45:33.991Z,9.38
2023-05-14T01:46:34.227Z,9.35
2023-05-14T01:47:34.012Z,9.33
2023-05-14T01:48:34.332Z,9.33
2023-05-14T01:49:33.940Z,9.33
2023-05-14T01:50:33.930Z,9.35
2023-05-14T01:51:33.939Z,9.32
2023-05-14T01:52:33.905Z,9.29
2023-05-14T01:53:33.893Z,9.28
2023-05-14T01:54:33.901Z,9.23
2023-05-14T01:55:33.851Z,9.23
2023-05-14T01:56:33.887Z,9.18
2023-05-14T01:57:33.866Z,9.17
2023-05-14T01:58:33.858Z,9.14
2023-05-14T01:59:33.852Z,9.15
2023-05-14T02:00:33.828Z,9.15
2023-05-14T02:01:33.965Z,9.15
2023-05-14T02:02:33.888Z,9.15
2023-05-14T02:03:33.799Z,9.15
2023-05-14T02:04:33.789Z,9.13
2023-05-14T02:05:33.756Z,9.13
2023-05-14T02:06:33.735Z,9.13
2023-05-14T02:07:34.087Z,9.10
2023-05-14T02:08:33.732Z,9.10
2023-05-14T02:09:33.708Z,9.10
2023-05-14T02:10:33.748Z,9.11
2023-05-14T02:11:33.743Z,9.08
2023-05-14T02:12:33.689Z,9.11
2023-05-14T02:13:33.677Z,9.08
2023-05-14T02:14:33.667Z,9.08
2023-05-14T02:15:33.650Z,9.05
2023-05-14T02:16:33.850Z,9.04
2023-05-14T02:17:33.691Z,9.01
2023-05-14T02:18:33.654Z,9.01
2023-05-14T02:19:33.602Z,8.98
2023-05-14T02:20:33.613Z,8.98
2023-05-14T02:21:33.583Z,8.96
2023-05-14T02:22:33.574Z,8.96
2023-05-14T02:23:41.096Z,8.96
2023-05-14T02:24:34.551Z,8.95
2023-05-14T02:25:33.549Z,8.99
2023-05-14T02:26:33.538Z,8.99
2023-05-14T02:27:33.536Z,8.99
2023-05-14T02:28:33.514Z,8.98
2023-05-14T02:29:33.484Z,8.98
2023-05-14T02:30:33.535Z,8.96
2023-05-14T02:31:33.534Z,8.96
2023-05-14T02:32:33.547Z,8.92
2023-05-14T02:33:33.543Z,8.87
2023-05-14T02:34:33.440Z,8.94
2023-05-14T02:35:33.458Z,8.94
2023-05-14T02:36:33.489Z,8.98
2023-05-14T02:37:33.416Z,8.99
2023-05-14T02:38:33.402Z,8.95
2023-05-14T02:39:33.426Z,8.96
2023-05-14T02:40:33.402Z,8.95
2023-05-14T02:41:33.376Z,8.95
2023-05-14T02:42:33.375Z,8.96
2023-05-14T02:43:33.368Z,8.92
2023-05-14T02:44:33.341Z,8.94
2023-05-14T02:45:33.331Z,8.94
2023-05-14T02:46:33.383Z,8.94
2023-05-14T02:47:34.739Z,8.94
2023-05-14T02:48:33.321Z,8.94
2023-05-14T02:49:33.300Z,8.95
2023-05-14T02:50:33.578Z,8.94
2023-05-14T02:51:33.267Z,8.95
2023-05-14T02:52:33.235Z,8.94
2023-05-14T02:53:33.255Z,8.94
2023-05-14T02:54:33.562Z,8.94
2023-05-14T02:55:33.207Z,8.94
2023-05-14T02:56:33.195Z,8.94
2023-05-14T02:57:33.214Z,8.92
2023-05-14T02:58:33.190Z,8.91
2023-05-14T02:59:33.196Z,8.91
2023-05-14T03:00:33.207Z,8.89
2023-05-14T03:01:33.167Z,8.87
2023-05-14T03:02:33.234Z,8.87
2023-05-14T03:03:33.221Z,8.87
2023-05-14T03:04:33.117Z,8.87
2023-05-14T03:05:34.856Z,8.86
2023-05-14T03:06:33.083Z,8.87
2023-05-14T03:07:33.102Z,8.87
2023-05-14T03:08:33.086Z,8.86
2023-05-14T03:09:33.067Z,8.84
2023-05-14T03:10:33.078Z,8.84
2023-05-14T03:11:33.031Z,8.81
2023-05-14T03:12:33.038Z,8.84
2023-05-14T03:13:33.073Z,8.84
2023-05-14T03:14:33.024Z,8.86
2023-05-14T03:15:32.979Z,8.86
2023-05-14T03:16:33.372Z,8.87
2023-05-14T03:17:33.033Z,8.87
2023-05-14T03:18:40.889Z,8.87
2023-05-14T03:19:40.025Z,8.84
2023-05-14T03:20:32.938Z,8.86
2023-05-14T03:21:40.021Z,8.83
2023-05-14T03:22:33.248Z,8.83
2023-05-14T03:23:32.934Z,8.84
2023-05-14T03:24:32.918Z,8.84
2023-05-14T03:25:32.874Z,8.83
2023-05-14T03:26:32.868Z,8.86
2023-05-14T03:27:32.886Z,8.86
2023-05-14T03:28:32.837Z,8.84
2023-05-14T03:29:32.852Z,8.86
2023-05-14T03:30:32.892Z,8.89
2023-05-14T03:31:33.167Z,8.89
2023-05-14T03:32:32.818Z,8.91
2023-05-14T03:33:32.791Z,8.92
2023-05-14T03:34:32.775Z,8.94
2023-05-14T03:35:32.802Z,8.94
2023-05-14T03:36:32.793Z,8.95
2023-05-14T03:37:32.751Z,8.99
2023-05-14T03:38:32.750Z,8.99
2023-05-14T03:39:33.719Z,9.02
2023-05-14T03:40:32.754Z,9.04
2023-05-14T03:41:32.736Z,9.05
2023-05-14T03:42:33.650Z,9.05
2023-05-14T03:43:32.716Z,9.05
2023-05-14T03:44:32.684Z,9.08
2023-05-14T03:45:32.685Z,9.08
2023-05-14T03:46:35.425Z,9.04
2023-05-14T03:47:32.722Z,9.02
2023-05-14T03:48:32.684Z,9.02
2023-05-14T03:49:32.616Z,9.04
2023-05-14T03:50:32.666Z,9.02
2023-05-14T03:51:32.610Z,9.04
2023-05-14T03:52:32.587Z,9.04
2023-05-14T03:53:32.584Z,9.05
2023-05-14T03:54:32.657Z,9.08
2023-05-14T03:55:32.569Z,9.05
2023-05-14T03:56:32.550Z,9.08
2023-05-14T03:57:32.544Z,9.08
2023-05-14T03:58:32.812Z,9.10
2023-05-14T03:59:32.576Z,9.11
2023-05-14T04:00:32.832Z,9.11
2023-05-14T04:01:32.464Z,9.13
2023-05-14T04:02:34.315Z,9.14
2023-05-14T04:03:32.721Z,9.11
2023-05-14T04:04:32.549Z,9.13
2023-05-14T04:05:32.438Z,9.10
2023-05-14T04:06:32.427Z,9.08
2023-05-14T04:07:32.425Z,9.02
2023-05-14T04:08:32.750Z,8.99
2023-05-14T04:09:32.401Z,8.95
2023-05-14T04:10:32.418Z,8.94
2023-05-14T04:11:32.387Z,8.91
2023-05-14T04:12:32.698Z,8.87
2023-05-14T04:13:32.400Z,8.83
2023-05-14T04:14:32.632Z,8.84
2023-05-14T04:15:32.338Z,8.84
2023-05-14T04:16:32.698Z,8.83
2023-05-14T04:17:36.379Z,8.83
2023-05-14T04:18:32.371Z,8.81
2023-05-14T04:19:35.089Z,8.81
2023-05-14T04:20:32.263Z,8.83
2023-05-14T04:21:32.278Z,8.80
2023-05-14T04:22:32.264Z,8.81
2023-05-14T04:23:32.271Z,8.83
2023-05-14T04:24:32.233Z,8.84
2023-05-14T04:25:32.213Z,8.83
2023-05-14T04:26:32.234Z,8.81
2023-05-14T04:27:32.208Z,8.80
2023-05-14T04:28:32.190Z,8.80
2023-05-14T04:29:32.183Z,8.80
2023-05-14T04:30:32.175Z,8.80
2023-05-14T04:31:32.164Z,8.80
2023-05-14T04:32:32.185Z,8.80
2023-05-14T04:33:32.148Z,8.81
2023-05-14T04:34:32.213Z,8.81
2023-05-14T04:35:32.103Z,8.81
2023-05-14T04:36:32.090Z,8.83
2023-05-14T04:37:32.101Z,8.84
2023-05-14T04:38:32.063Z,8.81
2023-05-14T04:39:32.053Z,8.83
2023-05-14T04:40:32.395Z,8.84
2023-05-14T04:41:32.048Z,8.86
2023-05-14T04:42:32.009Z,8.86
2023-05-14T04:43:32.015Z,8.86
2023-05-14T04:44:32.009Z,8.87
2023-05-14T04:45:33.998Z,8.87
2023-05-14T04:46:32.068Z,8.89
2023-05-14T04:47:31.997Z,8.91
2023-05-14T04:48:32.314Z,8.92
2023-05-14T04:49:31.941Z,8.91
2023-05-14T04:50:31.970Z,8.91
2023-05-14T04:51:31.941Z,8.91
2023-05-14T04:52:31.897Z,8.92
2023-05-14T04:53:31.924Z,8.91
2023-05-14T04:54:31.926Z,8.94
2023-05-14T04:55:31.877Z,8.95
2023-05-14T04:56:31.876Z,8.96
2023-05-14T04:57:31.865Z,9.02
2023-05-14T04:58:34.493Z,9.04
2023-05-14T04:59:31.935Z,9.08
2023-05-14T05:00:31.894Z,9.08
2023-05-14T05:01:31.856Z,9.08
2023-05-14T05:02:31.815Z,9.11
2023-05-14T05:03:31.808Z,9.13
2023-05-14T05:04:31.797Z,9.17
2023-05-14T05:05:31.782Z,9.26
2023-05-14T05:06:31.784Z,9.32
2023-05-14T05:07:32.055Z,9.36
2023-05-14T05:08:40.032Z,9.38
2023-05-14T05:09:39.751Z,9.39
2023-05-14T05:10:39.999Z,9.38
2023-05-14T05:11:40.079Z,9.40
2023-05-14T05:12:39.520Z,9.42
2023-05-14T05:13:39.040Z,9.46
2023-05-14T05:14:31.665Z,9.50
2023-05-14T05:15:31.681Z,9.53
2023-05-14T05:16:31.769Z,9.58
2023-05-14T05:17:31.646Z,9.60
2023-05-14T05:18:31.703Z,9.64
2023-05-14T05:19:42.382Z,9.64
2023-05-14T05:20:32.630Z,9.66
2023-05-14T05:21:31.610Z,9.68
2023-05-14T05:22:31.582Z,9.68
2023-05-14T05:23:31.587Z,9.69
2023-05-14T05:24:31.565Z,9.71
2023-05-14T05:25:33.366Z,9.71
2023-05-14T05:26:31.517Z,9.72
2023-05-14T05:27:31.556Z,9.74
2023-05-14T05:28:31.510Z,9.75
2023-05-14T05:29:31.502Z,9.75
2023-05-14T05:30:31.507Z,9.76
2023-05-14T05:31:31.518Z,9.79
2023-05-14T05:32:31.589Z,9.79
2023-05-14T05:33:31.452Z,9.83
2023-05-14T05:34:31.484Z,9.84
2023-05-14T05:35:31.432Z,9.90
2023-05-14T05:36:31.467Z,9.93
2023-05-14T05:37:31.398Z,9.93
2023-05-14T05:38:31.398Z,9.96
2023-05-14T05:39:31.387Z,9.97
2023-05-14T05:40:31.359Z,10.02
2023-05-14T05:41:31.410Z,10.08
2023-05-14T05:42:31.360Z,10.11
2023-05-14T05:43:31.389Z,10.14
2023-05-14T05:44:31.337Z,10.15
2023-05-14T05:45:31.347Z,10.20
2023-05-14T05:46:31.340Z,10.25
2023-05-14T05:47:31.364Z,10.26
2023-05-14T05:48:31.324Z,10.32
2023-05-14T05:49:31.280Z,10.40
2023-05-14T05:50:31.264Z,10.42
2023-05-14T05:51:31.237Z,10.48
2023-05-14T05:52:31.248Z,10.53
2023-05-14T05:53:31.221Z,10.55
2023-05-14T05:54:31.214Z,10.53
2023-05-14T05:55:31.239Z,10.52
2023-05-14T05:56:31.182Z,10.56
2023-05-14T05:57:31.530Z,10.61
2023-05-14T05:58:31.171Z,10.67
2023-05-14T05:59:31.172Z,10.68
2023-05-14T06:00:31.183Z,10.70
2023-05-14T06:01:31.140Z,10.70
2023-05-14T06:02:31.492Z,10.68
2023-05-14T06:03:31.118Z,10.67
2023-05-14T06:04:31.105Z,10.61
2023-05-14T06:05:31.138Z,10.64
2023-05-14T06:06:31.117Z,10.67
2023-05-14T06:07:33.848Z,10.71
2023-05-14T06:08:31.053Z,10.79
2023-05-14T06:09:31.063Z,10.85
2023-05-14T06:10:31.040Z,10.89
2023-05-14T06:11:31.064Z,10.94
2023-05-14T06:12:31.004Z,10.96
2023-05-14T06:13:31.010Z,10.99
2023-05-14T06:14:31.022Z,11.03
2023-05-14T06:15:30.990Z,11.06
2023-05-14T06:16:31.002Z,11.11
2023-05-14T06:17:33.771Z,11.11
2023-05-14T06:18:30.978Z,11.09
2023-05-14T06:19:30.933Z,11.09
2023-05-14T06:20:30.924Z,11.09
2023-05-14T06:21:31.271Z,11.14
2023-05-14T06:22:30.896Z,11.17
2023-05-14T06:23:30.918Z,11.19
2023-05-14T06:24:30.877Z,11.21
2023-05-14T06:25:30.884Z,11.21
2023-05-14T06:26:30.850Z,11.24
2023-05-14T06:27:30.866Z,11.28
2023-05-14T06:28:30.822Z,11.32
2023-05-14T06:29:30.815Z,11.36
2023-05-14T06:30:30.868Z,11.37
2023-05-14T06:31:30.978Z,11.43
2023-05-14T06:32:30.837Z,11.47
2023-05-14T06:33:30.893Z,11.52
2023-05-14T06:34:30.782Z,11.57
2023-05-14T06:35:30.739Z,11.60
2023-05-14T06:36:31.053Z,11.65
2023-05-14T06:37:30.774Z,11.73
2023-05-14T06:38:30.713Z,11.79
2023-05-14T06:39:30.737Z,11.82
2023-05-14T06:40:30.687Z,11.85
2023-05-14T06:41:30.938Z,11.94
2023-05-14T06:42:30.677Z,11.96
2023-05-14T06:43:30.653Z,11.99
2023-05-14T06:44:31.436Z,12.02
2023-05-14T06:45:32.437Z,12.09
2023-05-14T06:46:30.621Z,12.12
2023-05-14T06:47:30.622Z,12.16
2023-05-14T06:48:30.651Z,12.20
2023-05-14T06:49:32.457Z,12.23
2023-05-14T06:50:30.864Z,12.28
2023-05-14T06:51:31.426Z,12.31
2023-05-14T06:52:30.565Z,12.35
2023-05-14T06:53:30.960Z,12.32
2023-05-14T06:54:30.529Z,12.35
2023-05-14T06:55:30.503Z,12.38
2023-05-14T06:56:30.556Z,12.39
2023-05-14T06:57:30.486Z,12.46
2023-05-14T06:58:30.537Z,12.49
2023-05-14T06:59:30.837Z,12.52
2023-05-14T07:00:30.497Z,12.53
2023-05-14T07:01:41.265Z,12.53
2023-05-14T07:02:41.443Z,12.56
2023-05-14T07:03:41.692Z,12.54
2023-05-14T07:04:40.833Z,12.53
2023-05-14T07:05:45.127Z,12.50
2023-05-14T07:06:31.444Z,12.46
2023-05-14T07:07:31.289Z,12.46
2023-05-14T07:08:31.343Z,12.46
2023-05-14T07:09:30.739Z,12.46
2023-05-14T07:10:30.356Z,12.47
2023-05-14T07:11:30.340Z,12.47
2023-05-14T07:12:33.235Z,12.50
2023-05-14T07:13:31.364Z,12.52
2023-05-14T07:14:34.490Z,12.52
2023-05-14T07:15:32.128Z,12.54
2023-05-14T07:16:30.430Z,12.54
2023-05-14T07:17:30.401Z,12.54
2023-05-14T07:18:32.291Z,12.60
2023-05-14T07:19:31.340Z,12.68
2023-05-14T07:20:31.481Z,12.74
2023-05-14T07:21:32.470Z,12.79
2023-05-14T07:22:31.307Z,12.87
2023-05-14T07:23:32.220Z,12.92
2023-05-14T07:24:30.607Z,12.96
2023-05-14T07:25:30.181Z,13.04
2023-05-14T07:26:32.944Z,13.04
2023-05-14T07:27:33.506Z,13.08
2023-05-14T07:28:31.064Z,13.11
2023-05-14T07:29:31.970Z,13.15
2023-05-14T07:30:30.187Z,13.20
2023-05-14T07:31:30.150Z,13.25
2023-05-14T07:32:30.135Z,13.30
2023-05-14T07:33:31.039Z,13.33
2023-05-14T07:34:30.092Z,13.38
2023-05-14T07:35:34.388Z,13.42
2023-05-14T07:36:32.909Z,13.51
2023-05-14T07:37:33.612Z,13.52
2023-05-14T07:38:32.789Z,13.59
2023-05-14T07:39:34.194Z,13.63
2023-05-14T07:40:31.429Z,13.70
2023-05-14T07:41:30.825Z,13.73
2023-05-14T07:42:36.583Z,13.79
2023-05-14T07:43:30.046Z,13.81
2023-05-14T07:44:32.483Z,13.84
2023-05-14T07:45:30.386Z,13.88
2023-05-14T07:46:31.767Z,13.88
2023-05-14T07:47:32.891Z,13.89
2023-05-14T07:48:32.968Z,13.91
2023-05-14T07:49:32.675Z,13.97
2023-05-14T07:50:30.294Z,14.03
2023-05-14T07:51:29.947Z,14.07
2023-05-14T07:52:29.881Z,14.10
2023-05-14T07:53:32.691Z,14.12
2023-05-14T07:54:32.742Z,14.14
2023-05-14T07:55:32.024Z,14.20
2023-05-14T07:56:34.285Z,14.27
2023-05-14T07:57:35.009Z,14.32
2023-05-14T07:58:30.244Z,14.36
2023-05-14T07:59:30.539Z,14.43
2023-05-14T08:00:29.776Z,14.50
2023-05-14T08:01:29.790Z,14.60
2023-05-14T08:02:30.018Z,14.68
2023-05-14T08:03:29.868Z,14.70
2023-05-14T08:04:29.873Z,14.78
2023-05-14T08:05:29.745Z,14.80
2023-05-14T08:06:29.718Z,14.84
2023-05-14T08:07:29.735Z,14.89
2023-05-14T08:08:29.721Z,14.91
2023-05-14T08:09:29.674Z,14.95
2023-05-14T08:10:29.853Z,14.98
2023-05-14T08:11:29.661Z,15.03
2023-05-14T08:12:29.665Z,15.13
2023-05-14T08:13:29.650Z,15.19
2023-05-14T08:14:29.659Z,15.27
2023-05-14T08:15:29.656Z,15.28
2023-05-14T08:16:29.697Z,15.32
2023-05-14T08:17:29.642Z,15.35
2023-05-14T08:18:29.910Z,15.41
2023-05-14T08:19:29.607Z,15.39
2023-05-14T08:20:29.613Z,15.44
2023-05-14T08:21:29.574Z,15.51
2023-05-14T08:22:29.615Z,15.56
2023-05-14T08:23:29.574Z,15.62
2023-05-14T08:24:29.576Z,15.64
2023-05-14T08:25:29.522Z,15.71
2023-05-14T08:26:29.493Z,15.76
2023-05-14T08:27:29.478Z,15.80
2023-05-14T08:28:29.471Z,15.82
2023-05-14T08:29:29.499Z,15.83
2023-05-14T08:30:29.447Z,15.84
2023-05-14T08:31:29.500Z,15.84
2023-05-14T08:32:29.449Z,15.86
2023-05-14T08:33:29.462Z,15.92
2023-05-14T08:34:29.399Z,15.93
2023-05-14T08:35:30.148Z,16.00
2023-05-14T08:36:29.408Z,16.05
2023-05-14T08:37:29.363Z,16.08
2023-05-14T08:38:29.386Z,16.08
2023-05-14T08:39:29.345Z,16.05
2023-05-14T08:40:32.211Z,16.14
2023-05-14T08:41:31.217Z,16.20
2023-05-14T08:42:29.377Z,16.24
2023-05-14T08:43:29.349Z,16.31
2023-05-14T08:44:29.277Z,16.38
2023-05-14T08:45:29.300Z,16.45
2023-05-14T08:46:29.265Z,16.43
2023-05-14T08:47:29.267Z,16.45
2023-05-14T08:48:29.659Z,16.49
2023-05-14T08:49:29.233Z,16.50
2023-05-14T08:50:29.712Z,16.60
2023-05-14T08:51:29.241Z,16.61
2023-05-14T08:52:29.187Z,16.61
2023-05-14T08:53:36.699Z,16.57
2023-05-14T08:54:36.512Z,16.60
2023-05-14T08:55:37.191Z,16.63
2023-05-14T08:56:36.163Z,16.66
2023-05-14T08:57:36.181Z,16.70
2023-05-14T08:58:37.514Z,16.73
2023-05-14T08:59:29.143Z,16.79
2023-05-14T09:00:36.131Z,16.88
2023-05-14T09:01:37.190Z,16.96
2023-05-14T09:02:37.990Z,16.88
2023-05-14T09:03:29.123Z,16.85
2023-05-14T09:04:29.105Z,16.83
2023-05-14T09:05:29.062Z,16.86
2023-05-14T09:06:29.053Z,16.88
2023-05-14T09:07:29.028Z,16.94
2023-05-14T09:08:29.063Z,16.94
2023-05-14T09:09:29.005Z,16.98
2023-05-14T09:10:29.017Z,17.03
2023-05-14T09:11:29.003Z,17.08
2023-05-14T09:12:28.953Z,17.19
2023-05-14T09:13:28.933Z,17.25
2023-05-14T09:14:28.962Z,17.33
2023-05-14T09:15:29.060Z,17.31
2023-05-14T09:16:29.008Z,17.33
2023-05-14T09:17:28.946Z,17.37
2023-05-14T09:18:28.945Z,17.30
2023-05-14T09:19:28.863Z,17.21
2023-05-14T09:20:29.131Z,17.25
2023-05-14T09:21:30.186Z,17.37
2023-05-14T09:22:29.138Z,17.44
2023-05-14T09:23:28.841Z,17.49
2023-05-14T09:24:28.832Z,17.44
2023-05-14T09:25:28.812Z,17.52
2023-05-14T09:26:28.847Z,17.58
2023-05-14T09:27:29.803Z,17.64
2023-05-14T09:28:28.808Z,17.66
2023-05-14T09:29:28.796Z,17.71
2023-05-14T09:30:31.552Z,17.68
2023-05-14T09:31:28.771Z,17.55
2023-05-14T09:32:28.766Z,17.51
2023-05-14T09:33:28.743Z,17.51
2023-05-14T09:34:28.712Z,17.44
2023-05-14T09:35:28.698Z,17.51
2023-05-14T09:36:28.721Z,17.58
2023-05-14T09:37:28.708Z,17.68
2023-05-14T09:38:28.778Z,17.68
2023-05-14T09:39:28.688Z,17.55
2023-05-14T09:40:29.193Z,17.52
2023-05-14T09:41:28.635Z,17.63
2023-05-14T09:42:28.619Z,17.74
2023-05-14T09:43:28.660Z,17.77
2023-05-14T09:44:31.969Z,17.78
2023-05-14T09:45:33.172Z,17.82
2023-05-14T09:46:38.995Z,17.92
2023-05-14T09:47:29.227Z,18.02
2023-05-14T09:48:29.322Z,18.08
2023-05-14T09:49:28.552Z,18.12
2023-05-14T09:50:28.582Z,18.20
2023-05-14T09:51:28.520Z,18.23
2023-05-14T09:52:28.796Z,18.23
2023-05-14T09:53:28.508Z,18.20
2023-05-14T09:54:30.361Z,18.11
2023-05-14T09:55:28.532Z,18.05
2023-05-14T09:56:28.479Z,18.05
2023-05-14T09:57:28.494Z,18.11
2023-05-14T09:58:28.765Z,17.99
2023-05-14T09:59:28.460Z,18.00
2023-05-14T10:00:28.454Z,18.14
2023-05-14T10:01:32.748Z,18.25
2023-05-14T10:02:28.937Z,18.33
2023-05-14T10:03:28.415Z,18.39
2023-05-14T10:04:28.504Z,18.50
2023-05-14T10:05:28.714Z,18.58
2023-05-14T10:06:28.368Z,18.63
2023-05-14T10:07:28.379Z,18.63
2023-05-14T10:08:28.424Z,18.69
2023-05-14T10:09:29.348Z,18.62
2023-05-14T10:10:28.731Z,18.52
2023-05-14T10:11:29.136Z,18.52
2023-05-14T10:12:28.326Z,18.55
2023-05-14T10:13:29.478Z,18.63
2023-05-14T10:14:28.298Z,18.70
2023-05-14T10:15:29.870Z,18.72
2023-05-14T10:16:28.335Z,18.73
2023-05-14T10:17:28.261Z,18.78
2023-05-14T10:18:28.310Z,18.85
2023-05-14T10:19:28.431Z,18.92
2023-05-14T10:20:29.054Z,19.02
2023-05-14T10:21:28.560Z,19.07
2023-05-14T10:22:28.187Z,19.10
2023-05-14T10:23:28.176Z,19.11
2023-05-14T10:24:28.484Z,19.14
2023-05-14T10:25:28.209Z,19.11
2023-05-14T10:26:29.286Z,19.10
2023-05-14T10:27:28.149Z,19.21
2023-05-14T10:28:29.075Z,19.33
2023-05-14T10:29:29.549Z,19.40
2023-05-14T10:30:28.107Z,19.41
2023-05-14T10:31:29.193Z,19.43
2023-05-14T10:32:28.155Z,19.50
2023-05-14T10:33:28.078Z,19.48
2023-05-14T10:34:28.072Z,19.43
2023-05-14T10:35:29.564Z,19.43
2023-05-14T10:36:29.502Z,19.43
2023-05-14T10:37:28.022Z,19.51
2023-05-14T10:38:28.359Z,19.58
2023-05-14T10:39:28.004Z,19.46
2023-05-14T10:40:27.995Z,19.25
2023-05-14T10:41:27.974Z,19.32
2023-05-14T10:42:28.035Z,19.55
2023-05-14T10:43:27.969Z,19.69
2023-05-14T10:44:28.474Z,19.83
2023-05-14T10:45:28.536Z,19.84
2023-05-14T10:46:38.778Z,19.88
2023-05-14T10:47:36.965Z,19.92
2023-05-14T10:48:36.880Z,19.99
2023-05-14T10:49:43.627Z,20.08
2023-05-14T10:50:30.054Z,20.14
2023-05-14T10:51:29.350Z,20.26
2023-05-14T10:52:29.185Z,20.38
2023-05-14T10:53:29.319Z,20.28
2023-05-14T10:54:29.274Z,20.24
2023-05-14T10:55:33.131Z,20.18
2023-05-14T10:56:29.522Z,20.11
2023-05-14T10:57:28.820Z,20.17
2023-05-14T10:58:28.934Z,20.18
2023-05-14T10:59:29.425Z,20.18
2023-05-14T11:00:29.378Z,20.05
2023-05-14T11:01:29.002Z,20.01
2023-05-14T11:02:28.816Z,19.99
2023-05-14T11:03:29.570Z,20.11
2023-05-14T11:04:28.991Z,20.24
2023-05-14T11:05:28.626Z,20.35
2023-05-14T11:06:28.848Z,20.48
2023-05-14T11:07:29.599Z,20.58
2023-05-14T11:08:29.521Z,20.73
2023-05-14T11:09:28.811Z,20.94
2023-05-14T11:10:29.183Z,21.10
2023-05-14T11:11:28.699Z,21.22
2023-05-14T11:12:29.144Z,21.29
2023-05-14T11:13:29.616Z,21.21
2023-05-14T11:14:28.975Z,21.09
2023-05-14T11:16:39.667Z,21.25
2023-05-14T11:17:40.235Z,21.16
2023-05-14T11:18:39.763Z,21.24
2023-05-14T11:19:39.744Z,21.16
2023-05-14T11:20:40.257Z,21.13
2023-05-14T11:21:39.855Z,21.22
2023-05-14T11:22:39.574Z,21.32
2023-05-14T11:23:39.625Z,21.34
2023-05-14T11:24:39.563Z,21.22
2023-05-14T11:25:39.534Z,21.07
2023-05-14T11:26:40.071Z,21.06
2023-05-14T11:27:39.624Z,20.92
2023-05-14T11:28:39.878Z,20.92
2023-05-14T11:29:39.466Z,20.98
2023-05-14T11:30:39.627Z,21.03
2023-05-14T11:31:39.922Z,21.07
2023-05-14T11:32:39.584Z,21.13
2023-05-14T11:33:39.346Z,21.19
2023-05-14T11:34:39.533Z,21.17
2023-05-14T11:35:39.785Z,21.12
2023-05-14T11:36:39.694Z,21.16
2023-05-14T11:37:42.203Z,21.04
2023-05-14T11:38:39.586Z,20.99
2023-05-14T11:39:40.805Z,20.92
2023-05-14T11:40:41.099Z,20.88
2023-05-14T11:41:39.420Z,20.91
2023-05-14T11:42:39.457Z,20.70
2023-05-14T11:43:39.334Z,20.57
2023-05-14T11:44:39.778Z,20.52
2023-05-14T11:45:39.950Z,20.62
2023-05-14T11:46:39.597Z,20.70
2023-05-14T11:47:40.749Z,20.80
2023-05-14T11:48:39.345Z,20.76
2023-05-14T11:49:39.782Z,20.84
2023-05-14T11:50:39.402Z,20.94
2023-05-14T11:51:40.855Z,21.07
2023-05-14T11:52:39.319Z,20.98
2023-05-14T11:53:40.549Z,20.73
2023-05-14T11:54:39.676Z,20.72
2023-05-14T11:55:39.315Z,20.55
2023-05-14T11:56:39.297Z,20.54
2023-05-14T11:57:39.197Z,20.66
2023-05-14T11:58:39.593Z,20.95
2023-05-14T11:59:39.828Z,21.14
2023-05-14T12:00:39.060Z,21.16
2023-05-14T12:01:39.874Z,21.07
2023-05-14T12:02:39.077Z,20.98
2023-05-14T12:03:39.228Z,20.84
2023-05-14T12:04:39.314Z,20.72
2023-05-14T12:05:39.445Z,20.73
2023-05-14T12:06:41.278Z,20.76
2023-05-14T12:07:39.252Z,20.72
2023-05-14T12:08:42.448Z,20.70
2023-05-14T12:09:39.095Z,20.74
2023-05-14T12:10:40.903Z,20.87
2023-05-14T12:11:39.971Z,20.95
2023-05-14T12:12:38.780Z,21.03
2023-05-14T12:13:41.124Z,21.03
2023-05-14T12:14:39.161Z,21.13
2023-05-14T12:15:39.019Z,21.07
2023-05-14T12:16:41.544Z,20.92
2023-05-14T12:17:39.377Z,20.82
2023-05-14T12:18:40.684Z,20.85
2023-05-14T12:19:38.797Z,20.87
2023-05-14T12:20:39.145Z,20.94
2023-05-14T12:21:38.907Z,21.01
2023-05-14T12:22:39.174Z,21.09
2023-05-14T12:23:38.951Z,21.24
2023-05-14T12:24:38.733Z,21.27
2023-05-14T12:25:37.958Z,21.40
2023-05-14T12:26:39.677Z,21.50
2023-05-14T12:27:38.865Z,21.43
2023-05-14T12:28:38.829Z,21.40
2023-05-14T12:29:39.293Z,21.29
2023-05-14T12:30:38.883Z,21.27
2023-05-14T12:31:39.138Z,21.29
2023-05-14T12:32:38.958Z,21.29
2023-05-14T12:33:39.890Z,21.19
2023-05-14T12:34:38.686Z,21.09
2023-05-14T12:35:38.733Z,21.17
2023-05-14T12:36:47.476Z,21.24
2023-05-14T12:37:45.876Z,21.13
2023-05-14T12:38:46.382Z,21.10
2023-05-14T12:39:47.126Z,21.17
2023-05-14T12:40:45.723Z,21.22
2023-05-14T12:41:46.837Z,21.31
2023-05-14T12:42:38.863Z,21.38
2023-05-14T12:43:38.697Z,21.43
2023-05-14T12:44:39.028Z,21.43
2023-05-14T12:45:39.053Z,21.53
2023-05-14T12:46:38.496Z,21.68
2023-05-14T12:47:39.005Z,21.82
2023-05-14T12:48:38.657Z,21.86
2023-05-14T12:49:38.433Z,21.80
2023-05-14T12:50:39.964Z,21.69
2023-05-14T12:51:38.460Z,21.56
2023-05-14T12:52:39.943Z,21.56
2023-05-14T12:53:39.145Z,21.54
2023-05-14T12:54:38.142Z,21.53
2023-05-14T12:55:38.483Z,21.65
2023-05-14T12:56:38.398Z,21.62
2023-05-14T12:57:39.689Z,21.53
2023-05-14T12:58:38.521Z,21.47
2023-05-14T12:59:38.441Z,21.49
2023-05-14T13:00:38.624Z,21.49
2023-05-14T13:01:38.654Z,21.35
2023-05-14T13:02:42.516Z,21.35
2023-05-14T13:03:39.947Z,21.38